Lowest pressure

Not for real navigation. The accuracy of this data is not assured See disclaimer for more information



ICAO NAME COUNTRY WIND Kt GUST Kt VIS m TEMP/DEW C BARO METAR
ULAA Arhangel’Sk Russia 5 0 7000 -1/-2 28.88 ULAA 170900Z 33005KT 300V360 7000 -SHSN OVC005CB M01/M02 Q0978 R26/590338 NOSIG RMK QBB150 QFE732/09
UUYY Syktyvkar Russia 6 0 2200 -4/-5 28.94 UUYY 170900Z 18006KT 2200 -SHSN SCT010 BKN019CB M04/M05 Q0980 R18/450335 TEMPO 1000 SHSN RMK QFE727/
CYMH Mary’s Harbour Canada 4 0 14400 -2/-3 29.14 CYMH 170900Z AUTO 25004KT 9SM -SN FEW035 OVC060 M02/M03 A2914 RMK SLP871
CYDP Nain, Nfld Canada 0 0 24000 -14/-15 29.15 CYDP 170900Z 00000KT 15SM FEW085 SCT110 BKN230 M14/M15 A2915 RMK AS1AC2CS2 SLP872
CYCA Cartwright Man Canada 2 0 14400 -3/-4 29.18 CYCA 170900Z AUTO VRB02KT 9SM -SN SCT015 OVC044 M03/M04 A2918 RMK SLP885

Show more